createdAt,value
2018-09-12T00:00:34.620Z,90.40
2018-09-12T00:03:08.956Z,89.60
2018-09-12T00:05:44.692Z,91.40
2018-09-12T00:08:19.763Z,91.40
2018-09-12T00:10:55.463Z,90.60
2018-09-12T00:13:30.748Z,90.80
2018-09-12T00:16:04.896Z,91.50
2018-09-12T00:18:40.074Z,91.00
2018-09-12T00:21:15.552Z,90.80
2018-09-12T00:23:50.427Z,91.00
2018-09-12T00:26:25.517Z,91.20
2018-09-12T00:29:00.538Z,91.50
2018-09-12T00:31:34.737Z,92.10
2018-09-12T00:34:09.750Z,92.50
2018-09-12T00:36:44.644Z,92.10
2018-09-12T00:39:20.471Z,92.30
2018-09-12T00:41:55.569Z,92.30
2018-09-12T00:44:34.216Z,92.40
2018-09-12T00:47:09.872Z,92.40
2018-09-12T00:49:45.306Z,92.40
2018-09-12T00:52:20.461Z,92.80
2018-09-12T00:54:55.529Z,92.70
2018-09-12T00:57:30.290Z,93.40
2018-09-12T01:00:04.380Z,93.40
2018-09-12T01:02:38.526Z,93.30
2018-09-12T01:05:12.625Z,93.30
2018-09-12T01:07:47.460Z,93.20
2018-09-12T01:10:21.743Z,93.40
2018-09-12T01:12:55.858Z,93.00
2018-09-12T01:15:30.737Z,93.30
2018-09-12T01:18:05.721Z,93.90
2018-09-12T01:20:40.301Z,94.30
2018-09-12T01:23:14.805Z,94.80
2018-09-12T01:25:49.991Z,96.30
2018-09-12T01:28:24.231Z,96.20
2018-09-12T01:30:58.367Z,96.30
2018-09-12T01:33:33.608Z,96.40
2018-09-12T01:36:07.860Z,96.00
2018-09-12T01:38:41.801Z,96.30
2018-09-12T01:41:16.786Z,96.60
2018-09-12T01:43:51.706Z,97.70
2018-09-12T01:46:25.926Z,97.50
2018-09-12T01:49:00.142Z,98.00
2018-09-12T01:51:34.446Z,97.80
2018-09-12T01:54:08.454Z,97.60
2018-09-12T01:56:42.474Z,97.50
2018-09-12T01:59:16.561Z,98.40
2018-09-12T02:01:50.499Z,98.30
2018-09-12T02:04:25.254Z,98.50
2018-09-12T02:06:59.460Z,98.20
2018-09-12T02:09:33.762Z,98.10
2018-09-12T02:12:08.757Z,98.40
2018-09-12T02:14:42.786Z,98.20
2018-09-12T02:17:17.001Z,98.50
2018-09-12T02:19:51.334Z,98.60
2018-09-12T02:22:25.362Z,98.90
2018-09-12T02:24:59.684Z,98.90
2018-09-12T02:27:34.660Z,99.90
2018-09-12T02:30:08.903Z,99.90
2018-09-12T02:32:43.192Z,99.90
2018-09-12T02:35:18.935Z,99.90
2018-09-12T02:37:53.814Z,99.90
2018-09-12T02:40:28.001Z,99.90
2018-09-12T02:43:01.996Z,99.90
2018-09-12T02:45:36.858Z,99.90
2018-09-12T02:48:11.338Z,99.90
2018-09-12T02:50:46.247Z,99.90
2018-09-12T02:53:24.393Z,99.90
2018-09-12T02:55:58.469Z,99.90
2018-09-12T02:58:32.510Z,99.90
2018-09-12T03:01:06.558Z,99.90
2018-09-12T03:03:40.577Z,99.90
2018-09-12T03:06:14.601Z,99.90
2018-09-12T03:08:49.432Z,99.90
2018-09-12T03:11:23.340Z,99.90
2018-09-12T03:13:57.321Z,99.90
2018-09-12T03:16:31.351Z,99.90
2018-09-12T03:19:05.361Z,99.90
2018-09-12T03:21:39.474Z,99.90
2018-09-12T03:24:14.326Z,99.90
2018-09-12T03:26:49.047Z,99.90
2018-09-12T03:29:23.693Z,99.90
2018-09-12T03:31:57.617Z,99.90
2018-09-12T03:34:31.598Z,99.90
2018-09-12T03:37:05.707Z,99.90
2018-09-12T03:39:39.753Z,99.90
2018-09-12T03:42:13.829Z,99.90
2018-09-12T03:44:47.943Z,99.90
2018-09-12T03:47:22.047Z,99.90
2018-09-12T03:49:56.078Z,99.90
2018-09-12T03:52:30.186Z,99.90
2018-09-12T03:55:04.290Z,99.90
2018-09-12T03:57:38.391Z,99.90
2018-09-12T04:00:12.411Z,99.90
2018-09-12T04:02:46.451Z,99.90
2018-09-12T04:05:21.270Z,99.90
2018-09-12T04:07:55.165Z,99.90
2018-09-12T04:10:29.229Z,99.90
2018-09-12T04:13:03.296Z,99.90
2018-09-12T04:15:37.307Z,99.90
2018-09-12T04:18:11.416Z,99.90
2018-09-12T04:20:45.531Z,99.90
2018-09-12T04:23:19.645Z,99.90
2018-09-12T04:25:54.584Z,99.90
2018-09-12T04:28:28.570Z,99.90
2018-09-12T04:31:02.674Z,99.90
2018-09-12T04:33:36.712Z,99.90
2018-09-12T04:36:11.482Z,99.90
2018-09-12T04:38:45.422Z,99.90
2018-09-12T04:41:19.502Z,99.90
2018-09-12T04:43:53.604Z,99.90
2018-09-12T04:46:27.535Z,99.90
2018-09-12T04:49:02.377Z,99.90
2018-09-12T04:51:36.485Z,99.90
2018-09-12T04:54:10.524Z,99.90
2018-09-12T04:56:45.645Z,99.90
2018-09-12T04:59:20.735Z,99.90
2018-09-12T05:01:54.841Z,99.90
2018-09-12T05:04:28.907Z,99.90
2018-09-12T05:07:03.026Z,99.90
2018-09-12T05:09:37.033Z,99.90
2018-09-12T05:12:11.882Z,99.90
2018-09-12T05:14:45.829Z,99.90
2018-09-12T05:17:19.882Z,99.90
2018-09-12T05:19:53.978Z,99.90
2018-09-12T05:22:27.998Z,99.90
2018-09-12T05:25:02.147Z,99.90
2018-09-12T05:27:36.854Z,99.90
2018-09-12T05:30:10.952Z,99.90
2018-09-12T05:32:45.703Z,99.90
2018-09-12T05:35:19.659Z,99.90
2018-09-12T05:37:53.782Z,99.90
2018-09-12T05:40:27.811Z,99.90
2018-09-12T05:43:01.884Z,99.90
2018-09-12T05:45:35.907Z,99.90
2018-09-12T05:48:10.666Z,99.90
2018-09-12T05:50:44.763Z,99.90
2018-09-12T05:53:18.814Z,99.90
2018-09-12T05:55:53.738Z,99.90
2018-09-12T05:58:27.848Z,99.90
2018-09-12T06:01:02.025Z,99.90
2018-09-12T06:03:36.240Z,99.90
2018-09-12T06:06:10.456Z,99.90
2018-09-12T06:08:44.606Z,99.90
2018-09-12T06:11:18.746Z,99.90
2018-09-12T06:13:52.976Z,99.90
2018-09-12T06:16:27.078Z,99.90
2018-09-12T06:19:01.273Z,99.90
2018-09-12T06:21:35.399Z,99.90
2018-09-12T06:24:09.453Z,99.90
2018-09-12T06:26:43.472Z,99.90
2018-09-12T06:29:17.369Z,99.90
2018-09-12T06:31:51.361Z,99.90
2018-09-12T06:34:25.423Z,99.90
2018-09-12T06:36:59.509Z,99.90
2018-09-12T06:39:33.625Z,99.90
2018-09-12T06:42:07.732Z,99.90
2018-09-12T06:44:41.899Z,99.90
2018-09-12T06:47:15.913Z,99.90
2018-09-12T06:49:49.981Z,99.90
2018-09-12T06:52:24.008Z,99.90
2018-09-12T06:54:58.814Z,99.90
2018-09-12T06:57:32.778Z,99.90
2018-09-12T07:00:06.871Z,99.90
2018-09-12T07:02:41.669Z,99.90
2018-09-12T07:05:16.395Z,99.90
2018-09-12T07:07:50.291Z,99.90
2018-09-12T07:10:24.317Z,99.90
2018-09-12T07:12:58.405Z,99.90
2018-09-12T07:15:32.453Z,99.90
2018-09-12T07:18:06.537Z,99.90
2018-09-12T07:20:40.648Z,99.90
2018-09-12T07:23:14.710Z,99.90
2018-09-12T07:25:48.743Z,99.90
2018-09-12T07:28:22.762Z,99.90
2018-09-12T07:30:56.725Z,99.90
2018-09-12T07:33:30.714Z,99.90
2018-09-12T07:36:04.840Z,99.90
2018-09-12T07:38:38.822Z,99.90
2018-09-12T07:41:12.944Z,99.90
2018-09-12T07:43:47.043Z,99.90
2018-09-12T07:46:21.092Z,99.90
2018-09-12T07:48:55.195Z,99.90
2018-09-12T07:51:29.269Z,99.90
2018-09-12T07:54:03.402Z,99.90
2018-09-12T07:56:37.459Z,99.90
2018-09-12T07:59:11.517Z,99.90
2018-09-12T08:01:45.674Z,99.90
2018-09-12T08:04:19.769Z,99.90
2018-09-12T08:06:53.770Z,99.90
2018-09-12T08:09:27.810Z,99.90
2018-09-12T08:12:01.779Z,99.90
2018-09-12T08:14:36.426Z,98.20
2018-09-12T08:17:11.191Z,96.90
2018-09-12T08:19:45.290Z,96.90
2018-09-12T08:22:19.171Z,95.90
2018-09-12T08:24:53.201Z,94.90
2018-09-12T08:27:28.033Z,92.80
2018-09-12T08:30:01.977Z,92.80
2018-09-12T08:32:36.799Z,91.10
2018-09-12T08:35:10.919Z,91.10
2018-09-12T08:37:45.634Z,91.60
2018-09-12T08:40:19.746Z,91.60
2018-09-12T08:42:53.835Z,91.10
2018-09-12T08:45:28.684Z,87.90
2018-09-12T08:48:02.815Z,87.80
2018-09-12T08:50:37.530Z,84.70
2018-09-12T08:53:11.621Z,84.60
2018-09-12T08:55:45.761Z,85.70
2018-09-12T08:58:19.775Z,84.40
2018-09-12T09:00:53.879Z,83.30
2018-09-12T09:03:27.994Z,83.80
2018-09-12T09:06:02.019Z,83.70
2018-09-12T09:08:36.129Z,81.20
2018-09-12T09:11:10.162Z,80.50
2018-09-12T09:13:44.155Z,81.20
2018-09-12T09:16:18.255Z,81.40
2018-09-12T09:18:52.995Z,77.00
2018-09-12T09:21:27.835Z,75.80
2018-09-12T09:24:01.824Z,75.80
2018-09-12T09:26:35.918Z,74.70
2018-09-12T09:29:10.849Z,74.60
2018-09-12T09:31:45.015Z,74.60
2018-09-12T09:34:18.925Z,74.50
2018-09-12T09:36:52.925Z,74.20
2018-09-12T09:39:27.100Z,72.30
2018-09-12T09:42:01.322Z,72.30
2018-09-12T09:44:35.502Z,73.70
2018-09-12T09:47:09.635Z,73.30
2018-09-12T09:49:43.689Z,71.50
2018-09-12T09:52:17.726Z,71.30
2018-09-12T09:54:51.721Z,71.00
2018-09-12T09:57:25.825Z,70.10
2018-09-12T09:59:59.809Z,67.90
2018-09-12T10:02:34.678Z,66.60
2018-09-12T10:05:08.802Z,66.60
2018-09-12T10:07:42.715Z,68.40
2018-09-12T10:10:16.700Z,68.70
2018-09-12T10:12:50.841Z,67.90
2018-09-12T10:15:25.750Z,67.60
2018-09-12T10:17:59.865Z,67.60
2018-09-12T10:20:33.890Z,67.30
2018-09-12T10:23:07.914Z,67.90
2018-09-12T10:25:41.860Z,66.10
2018-09-12T10:28:15.926Z,64.80
2018-09-12T10:30:50.088Z,65.00
2018-09-12T10:33:24.181Z,61.90
2018-09-12T10:35:58.254Z,62.40
2018-09-12T10:38:32.220Z,62.60
2018-09-12T10:41:06.395Z,62.20
2018-09-12T10:43:40.490Z,63.10
2018-09-12T10:46:14.626Z,60.50
2018-09-12T10:48:48.527Z,60.30
2018-09-12T10:51:22.647Z,60.40
2018-09-12T10:53:56.753Z,60.60
2018-09-12T10:56:30.870Z,60.40
2018-09-12T10:59:04.908Z,60.70
2018-09-12T11:01:39.822Z,59.40
2018-09-12T11:04:13.995Z,59.40
2018-09-12T11:06:48.848Z,60.20
2018-09-12T11:09:22.938Z,59.80
2018-09-12T11:11:56.873Z,59.20
2018-09-12T11:14:30.881Z,57.30
2018-09-12T11:17:04.846Z,57.40
2018-09-12T11:19:39.015Z,56.50
2018-09-12T11:22:13.734Z,57.30
2018-09-12T11:24:47.847Z,57.30
2018-09-12T11:27:21.964Z,56.10
2018-09-12T11:29:55.971Z,56.80
2018-09-12T11:32:30.092Z,56.00
2018-09-12T11:35:04.174Z,55.20
2018-09-12T11:37:38.317Z,55.00
2018-09-12T11:40:12.547Z,53.90
2018-09-12T11:42:46.642Z,52.80
2018-09-12T11:45:20.674Z,53.20
2018-09-12T11:47:54.796Z,52.30
2018-09-12T11:50:28.881Z,52.20
2018-09-12T11:53:04.201Z,52.10
2018-09-12T11:55:38.292Z,51.90
2018-09-12T11:58:12.166Z,51.50
2018-09-12T12:00:47.011Z,51.20
2018-09-12T12:03:21.208Z,51.20
2018-09-12T12:05:55.109Z,52.50
2018-09-12T12:08:29.126Z,50.70
2018-09-12T12:11:03.847Z,50.90
2018-09-12T12:13:37.926Z,50.90
2018-09-12T12:16:12.024Z,50.60
2018-09-12T12:18:46.905Z,50.00
2018-09-12T12:21:21.738Z,50.00
2018-09-12T12:23:55.685Z,50.30
2018-09-12T12:26:40.715Z,49.70
2018-09-12T12:29:14.828Z,49.60
2018-09-12T12:31:49.099Z,48.70
2018-09-12T12:34:26.152Z,48.90
2018-09-12T12:37:00.144Z,49.20
2018-09-12T12:43:41.388Z,43.90
2018-09-12T12:46:15.480Z,42.90
2018-09-12T12:48:49.391Z,43.40
2018-09-12T12:51:23.410Z,44.00
2018-09-12T12:53:58.293Z,43.00
2018-09-12T12:56:32.199Z,43.00
2018-09-12T12:59:06.258Z,42.20
2018-09-12T13:01:40.176Z,42.00
2018-09-12T13:04:14.285Z,41.20
2018-09-12T13:06:48.398Z,40.40
2018-09-12T13:09:22.509Z,40.60
2018-09-12T13:11:56.531Z,40.30
2018-09-12T13:14:30.570Z,40.00
2018-09-12T13:17:04.585Z,39.90
2018-09-12T13:19:38.549Z,39.50
2018-09-12T13:22:12.628Z,39.90
2018-09-12T13:24:46.785Z,39.90
2018-09-12T13:27:20.802Z,40.00
2018-09-12T13:29:54.641Z,39.50
2018-09-12T13:32:29.366Z,39.90
2018-09-12T13:35:03.550Z,39.90
2018-09-12T13:37:39.133Z,39.40
2018-09-12T13:40:14.927Z,39.40
2018-09-12T13:42:48.905Z,38.90
2018-09-12T13:59:35.969Z,38.80
2018-09-12T14:02:10.116Z,40.30
2018-09-12T14:04:44.953Z,39.70
2018-09-12T14:07:19.066Z,38.90
2018-09-12T14:09:53.047Z,39.50
2018-09-12T14:12:27.045Z,38.90
2018-09-12T14:15:01.069Z,39.40
2018-09-12T14:17:35.169Z,38.70
2018-09-12T14:20:09.298Z,38.50
2018-09-12T14:22:43.415Z,38.70
2018-09-12T14:25:17.438Z,39.00
2018-09-12T14:27:51.466Z,40.00
2018-09-12T14:30:25.548Z,39.80
2018-09-12T14:32:59.640Z,40.60
2018-09-12T14:35:33.653Z,40.20
2018-09-12T14:38:07.678Z,40.30
2018-09-12T14:40:41.613Z,39.90
2018-09-12T14:43:15.798Z,39.60
2018-09-12T14:45:50.558Z,40.00
2018-09-12T14:48:24.657Z,40.00
2018-09-12T14:50:58.666Z,39.90
2018-09-12T14:53:32.770Z,39.90
2018-09-12T14:56:06.805Z,40.60
2018-09-12T14:58:40.812Z,40.20
2018-09-12T15:01:14.838Z,41.20
2018-09-12T15:03:48.648Z,40.30
2018-09-12T15:06:23.349Z,40.30
2018-09-12T15:08:57.240Z,40.20
2018-09-12T15:11:31.890Z,40.10
2018-09-12T15:14:05.823Z,40.10
2018-09-12T15:16:39.815Z,39.60
2018-09-12T15:19:13.917Z,40.00
2018-09-12T15:21:47.926Z,40.00
2018-09-12T15:24:21.945Z,40.40
2018-09-12T15:27:00.188Z,40.00
2018-09-12T15:29:50.740Z,40.00
2018-09-12T15:32:24.746Z,39.60
2018-09-12T15:35:12.435Z,40.30
2018-09-12T15:37:46.495Z,41.00
2018-09-12T15:40:21.196Z,37.90
2018-09-12T15:42:55.122Z,37.70
2018-09-12T15:45:29.950Z,36.10
2018-09-12T15:48:03.990Z,36.10
2018-09-12T15:50:38.037Z,35.30
2018-09-12T15:53:12.110Z,35.60
2018-09-12T15:55:46.274Z,35.30
2018-09-12T15:58:20.595Z,34.20
2018-09-12T16:00:54.394Z,34.30
2018-09-12T16:03:28.363Z,34.00
2018-09-12T16:06:02.414Z,34.00
2018-09-12T16:08:36.469Z,34.50
2018-09-12T16:11:10.405Z,34.40
2018-09-12T16:13:44.420Z,33.40
2018-09-12T16:16:18.466Z,32.60
2018-09-12T16:18:52.602Z,31.90
2018-09-12T16:21:26.698Z,32.10
2018-09-12T16:24:00.787Z,31.30
2018-09-12T16:26:35.639Z,31.60
2018-09-12T16:29:09.743Z,31.50
2018-09-12T16:31:43.988Z,30.70
2018-09-12T16:34:18.074Z,31.50
2018-09-12T16:36:52.201Z,32.20
2018-09-12T16:39:26.317Z,32.80
2018-09-12T16:42:01.555Z,32.90
2018-09-12T16:44:36.481Z,33.50
2018-09-12T16:47:10.606Z,32.80
2018-09-12T16:49:44.817Z,32.20
2018-09-12T16:52:22.315Z,32.10
2018-09-12T16:54:57.159Z,33.50
2018-09-12T16:57:31.129Z,33.50
2018-09-12T17:00:05.383Z,33.20
2018-09-12T17:02:39.728Z,33.70
2018-09-12T17:05:13.836Z,33.40
2018-09-12T17:07:47.935Z,35.10
2018-09-12T17:10:22.078Z,36.00
2018-09-12T17:12:56.836Z,36.60
2018-09-12T17:15:34.877Z,37.80
2018-09-12T17:18:08.873Z,38.90
2018-09-12T17:20:43.572Z,39.80
2018-09-12T17:23:17.658Z,39.60
2018-09-12T17:25:51.769Z,40.10
2018-09-12T17:28:26.638Z,41.00
2018-09-12T17:31:00.573Z,40.90
2018-09-12T17:33:34.617Z,43.00
2018-09-12T17:36:08.531Z,42.60
2018-09-12T17:38:43.374Z,41.50
2018-09-12T17:41:17.333Z,41.40
2018-09-12T17:43:52.146Z,42.50
2018-09-12T17:46:26.237Z,42.50
2018-09-12T17:49:00.416Z,45.50
2018-09-12T17:51:34.429Z,44.10
2018-09-12T17:54:08.451Z,44.70
2018-09-12T17:56:42.569Z,43.50
2018-09-12T17:59:16.795Z,46.20
2018-09-12T18:01:50.652Z,46.80
2018-09-12T18:04:24.702Z,47.80
2018-09-12T18:07:08.039Z,48.30
2018-09-12T18:09:42.275Z,47.40
2018-09-12T18:12:16.404Z,48.00
2018-09-12T18:14:50.602Z,48.80
2018-09-12T18:17:25.069Z,49.60
2018-09-12T18:19:59.376Z,51.50
2018-09-12T18:22:33.710Z,52.10
2018-09-12T18:25:07.718Z,51.10
2018-09-12T18:27:41.670Z,51.60
2018-09-12T18:30:15.822Z,52.30
2018-09-12T18:32:50.208Z,52.60
2018-09-12T18:35:25.378Z,55.50
2018-09-12T18:37:59.473Z,55.40
2018-09-12T18:40:33.783Z,54.20
2018-09-12T18:43:07.845Z,52.50
2018-09-12T18:45:41.810Z,54.90
2018-09-12T18:48:15.951Z,54.80
2018-09-12T18:50:50.127Z,55.10
2018-09-12T18:53:24.300Z,55.30
2018-09-12T18:55:59.174Z,55.30
2018-09-12T18:58:33.437Z,55.30
2018-09-12T19:01:07.631Z,56.20
2018-09-12T19:03:42.106Z,54.70
2018-09-12T19:06:17.436Z,55.60
2018-09-12T19:08:52.185Z,55.60
2018-09-12T19:11:26.700Z,56.00
2018-09-12T19:14:02.227Z,57.20
2018-09-12T19:16:36.211Z,55.50
2018-09-12T19:19:10.314Z,55.40
2018-09-12T19:21:46.417Z,55.90
2018-09-12T19:24:27.866Z,54.30
2018-09-12T19:27:05.101Z,54.70
2018-09-12T19:29:40.323Z,54.70
2018-09-12T19:32:16.828Z,55.70
2018-09-12T19:34:54.744Z,58.10
2018-09-12T19:37:29.065Z,58.00
2018-09-12T19:40:03.864Z,58.10
2018-09-12T19:42:38.093Z,58.20
2018-09-12T19:45:13.183Z,59.80
2018-09-12T19:47:47.554Z,59.70
2018-09-12T19:50:21.751Z,59.80
2018-09-12T19:52:56.046Z,59.70
2018-09-12T19:55:30.114Z,56.20
2018-09-12T19:58:04.507Z,56.30
2018-09-12T20:00:38.714Z,56.50
2018-09-12T20:03:14.565Z,56.60
2018-09-12T20:05:49.302Z,57.90
2018-09-12T20:08:23.618Z,57.90
2018-09-12T20:10:58.072Z,58.40
2018-09-12T20:13:32.257Z,58.50
2018-09-12T20:16:07.565Z,58.80
2018-09-12T20:18:41.743Z,58.70
2018-09-12T20:21:16.008Z,59.80
2018-09-12T20:23:51.052Z,60.30
2018-09-12T20:26:25.472Z,60.20
2018-09-12T20:29:00.010Z,59.60
2018-09-12T20:31:34.088Z,59.80
2018-09-12T20:34:08.282Z,62.50
2018-09-12T20:36:43.306Z,61.80
2018-09-12T20:39:17.505Z,61.70
2018-09-12T20:41:52.517Z,61.40
2018-09-12T20:44:28.022Z,62.00
2018-09-12T20:47:02.454Z,61.90
2018-09-12T20:49:36.417Z,62.50
2018-09-12T20:52:10.569Z,63.50
2018-09-12T20:54:48.041Z,64.40
2018-09-12T20:57:24.139Z,65.00
2018-09-12T20:59:59.158Z,66.90
2018-09-12T21:02:33.922Z,66.90
2018-09-12T21:05:08.799Z,68.20
2018-09-12T21:07:43.579Z,68.70
2018-09-12T21:10:19.312Z,71.80
2018-09-12T21:12:55.182Z,71.80
2018-09-12T21:15:31.165Z,71.70
2018-09-12T21:18:07.867Z,74.20
2018-09-12T21:20:44.715Z,74.20
2018-09-12T21:23:20.510Z,78.90
2018-09-12T21:25:56.783Z,80.90
2018-09-12T21:28:31.641Z,83.30
2018-09-12T21:31:08.181Z,90.60
2018-09-12T21:33:42.309Z,90.60
2018-09-12T21:36:16.659Z,92.40
2018-09-12T21:38:50.815Z,94.20
2018-09-12T21:41:25.210Z,95.40
2018-09-12T21:44:00.065Z,98.40
2018-09-12T21:46:35.167Z,99.30
2018-09-12T21:49:10.298Z,99.90
2018-09-12T21:51:44.362Z,99.90
2018-09-12T21:54:19.556Z,99.90
2018-09-12T21:56:55.704Z,99.90
2018-09-12T21:59:30.350Z,99.90
2018-09-12T22:02:06.004Z,99.90
2018-09-12T22:04:40.315Z,99.90
2018-09-12T22:07:14.517Z,99.90
2018-09-12T22:09:50.089Z,99.90
2018-09-12T22:12:24.102Z,99.90
2018-09-12T22:14:58.503Z,99.90
2018-09-12T22:17:33.261Z,99.90
2018-09-12T22:20:07.604Z,99.90
2018-09-12T22:22:42.066Z,99.90
2018-09-12T22:25:17.102Z,99.90
2018-09-12T22:27:52.138Z,99.90
2018-09-12T22:30:26.417Z,99.90
2018-09-12T22:33:00.673Z,99.90
2018-09-12T22:35:35.639Z,99.90
2018-09-12T22:38:09.942Z,99.90
2018-09-12T22:40:44.280Z,99.90
2018-09-12T22:43:19.186Z,99.90
2018-09-12T22:45:54.051Z,99.90
2018-09-12T22:48:28.304Z,99.90
2018-09-12T22:51:02.510Z,99.90
2018-09-12T22:53:36.815Z,99.90
2018-09-12T22:56:11.187Z,99.90
2018-09-12T22:58:45.526Z,99.90
2018-09-12T23:01:19.861Z,99.90
2018-09-12T23:03:53.981Z,99.90
2018-09-12T23:06:28.351Z,99.90
2018-09-12T23:09:03.258Z,99.90
2018-09-12T23:11:38.275Z,99.90
2018-09-12T23:14:12.443Z,99.90
2018-09-12T23:16:46.600Z,99.90
2018-09-12T23:19:20.970Z,99.90
2018-09-12T23:21:55.387Z,99.90
2018-09-12T23:24:29.458Z,99.90
2018-09-12T23:27:03.721Z,99.90
2018-09-12T23:29:37.853Z,99.90
2018-09-12T23:32:12.732Z,99.90
2018-09-12T23:34:46.911Z,99.90
2018-09-12T23:37:21.304Z,99.90
2018-09-12T23:39:56.948Z,99.90
2018-09-12T23:42:30.970Z,99.90
2018-09-12T23:45:05.143Z,99.90
2018-09-12T23:47:39.274Z,99.90
2018-09-12T23:50:14.422Z,99.90
2018-09-12T23:52:48.470Z,99.90
2018-09-12T23:55:22.417Z,99.90
2018-09-12T23:57:56.672Z,99.90
